Stedman, North Carolina
Current Conditions -  °F | °C
As of 5:21 AM on Wednesday 26 Nov 2014 (Local Time) from KFAY Reporting Station
Moderate Rain Moderate Rain  
Wind Chill: 53°   Ceiling: 800
Heat Index: 53°   Visibility: 2.5mi
Dew Point: 52°   Wind: 14mph
Humidity: 96%   Direction: 340°NNW
Pressure: 29.83"   Gusts: NA
Location:  35.01°N, 78.69°W
Report Text: KFAY 261021Z AUTO 34012KT 2 1/2SM RA BR BKN008 OVC016 12/11 A2983 RMK AO2 P0014 T01170111
Loading
Personal Weather Stations






























Interactive Weather Map New forecast layout! Learn more

10-Day Weather Forecast

Advertisements
Track Severe Weather on mobile